createdAt,value
2018-09-21T00:00:10.053Z,8.27
2018-09-21T00:02:40.671Z,8.93
2018-09-21T00:05:10.230Z,8.30
2018-09-21T00:07:39.819Z,8.07
2018-09-21T00:10:09.442Z,8.40
2018-09-21T00:12:39.117Z,8.60
2018-09-21T00:15:08.838Z,8.93
2018-09-21T00:17:38.423Z,9.60
2018-09-21T00:20:08.177Z,9.17
2018-09-21T00:22:37.794Z,9.07
2018-09-21T00:25:07.406Z,9.37
2018-09-21T00:27:36.932Z,9.50
2018-09-21T00:30:06.732Z,9.60
2018-09-21T00:32:36.376Z,9.50
2018-09-21T00:35:05.957Z,9.10
2018-09-21T00:37:35.641Z,9.30
2018-09-21T00:40:05.360Z,8.67
2018-09-21T00:42:34.929Z,8.63
2018-09-21T00:45:04.763Z,8.70
2018-09-21T00:47:34.302Z,8.47
2018-09-21T00:50:03.941Z,8.93
2018-09-21T00:52:33.536Z,8.77
2018-09-21T00:55:03.155Z,9.17
2018-09-21T00:57:32.787Z,8.90
2018-09-21T01:00:02.416Z,8.93
2018-09-21T01:02:32.107Z,9.33
2018-09-21T01:05:01.671Z,9.10
2018-09-21T01:07:31.232Z,9.27
2018-09-21T01:10:00.869Z,8.70
2018-09-21T01:12:31.534Z,8.17
2018-09-21T01:15:01.171Z,9.37
2018-09-21T01:17:30.746Z,9.13
2018-09-21T01:20:00.322Z,9.13
2018-09-21T01:22:29.914Z,8.73
2018-09-21T01:24:59.565Z,8.30
2018-09-21T01:27:29.185Z,8.60
2018-09-21T01:29:58.764Z,9.23
2018-09-21T01:32:28.394Z,8.10
2018-09-21T01:34:58.108Z,8.53
2018-09-21T01:37:27.675Z,8.60
2018-09-21T01:39:57.288Z,8.53
2018-09-21T01:42:26.886Z,8.83
2018-09-21T01:44:56.469Z,9.13
2018-09-21T01:47:26.047Z,8.70
2018-09-21T01:49:55.694Z,7.97
2018-09-21T01:52:25.343Z,8.10
2018-09-21T01:54:54.908Z,8.13
2018-09-21T01:57:24.601Z,8.00
2018-09-21T01:59:54.208Z,8.43
2018-09-21T02:02:23.955Z,8.50
2018-09-21T02:04:53.624Z,8.37
2018-09-21T02:07:23.228Z,8.50
2018-09-21T02:09:52.890Z,8.37
2018-09-21T02:12:22.640Z,8.47
2018-09-21T02:14:52.262Z,9.43
2018-09-21T02:17:21.931Z,7.60
2018-09-21T02:19:53.766Z,8.00
2018-09-21T02:22:23.394Z,8.30
2018-09-21T02:24:53.025Z,9.07
2018-09-21T02:27:22.659Z,8.37
2018-09-21T02:29:52.305Z,7.87
2018-09-21T02:32:21.987Z,7.73
2018-09-21T02:34:51.551Z,7.67
2018-09-21T02:37:21.241Z,8.27
2018-09-21T02:39:50.815Z,8.20
2018-09-21T02:42:20.580Z,8.33
2018-09-21T02:44:50.149Z,7.90
2018-09-21T02:47:19.743Z,8.23
2018-09-21T02:49:49.444Z,8.60
2018-09-21T02:52:19.051Z,8.27
2018-09-21T02:54:48.630Z,8.70
2018-09-21T02:57:18.203Z,8.87
2018-09-21T02:59:47.748Z,8.27
2018-09-21T03:02:17.360Z,8.80
2018-09-21T03:04:52.142Z,8.43
2018-09-21T03:07:22.178Z,8.43
2018-09-21T03:09:52.881Z,7.83
2018-09-21T03:12:22.550Z,8.30
2018-09-21T03:14:52.284Z,8.57
2018-09-21T03:17:21.878Z,8.00
2018-09-21T03:19:51.502Z,8.07
2018-09-21T03:22:21.202Z,8.10
2018-09-21T03:24:50.805Z,7.97
2018-09-21T03:27:20.539Z,8.10
2018-09-21T03:29:50.236Z,7.97
2018-09-21T03:32:23.629Z,7.80
2018-09-21T03:34:53.778Z,8.60
2018-09-21T03:37:23.450Z,8.00
2018-09-21T03:39:57.806Z,8.23
2018-09-21T03:42:29.436Z,8.87
2018-09-21T03:44:59.152Z,8.43
2018-09-21T03:47:28.876Z,8.60
2018-09-21T03:49:58.608Z,8.77
2018-09-21T03:52:28.856Z,8.30
2018-09-21T03:54:58.603Z,8.13
2018-09-21T03:57:28.305Z,8.00
2018-09-21T03:59:57.966Z,8.53
2018-09-21T04:02:27.635Z,8.90
2018-09-21T04:04:57.381Z,8.40
2018-09-21T04:07:27.042Z,8.10
2018-09-21T04:09:56.733Z,8.27
2018-09-21T04:12:26.345Z,8.23
2018-09-21T04:14:56.992Z,8.30
2018-09-21T04:17:26.908Z,8.03
2018-09-21T04:19:56.612Z,8.70
2018-09-21T04:22:26.249Z,8.70
2018-09-21T04:24:56.039Z,8.80
2018-09-21T04:27:25.889Z,8.53
2018-09-21T04:29:55.543Z,8.47
2018-09-21T04:32:25.130Z,9.03
2018-09-21T04:34:54.857Z,8.10
2018-09-21T04:37:24.477Z,8.70
2018-09-21T04:39:54.035Z,8.10
2018-09-21T04:42:23.754Z,8.47
2018-09-21T04:44:53.373Z,8.20
2018-09-21T04:47:22.989Z,8.40
2018-09-21T04:49:52.579Z,8.47
2018-09-21T04:52:22.363Z,8.57
2018-09-21T04:54:51.929Z,8.70
2018-09-21T04:57:21.645Z,8.60
2018-09-21T04:59:51.242Z,8.57
2018-09-21T05:02:21.045Z,8.73
2018-09-21T05:04:50.703Z,8.87
2018-09-21T05:07:20.334Z,8.20
2018-09-21T05:09:49.932Z,8.30
2018-09-21T05:12:19.714Z,8.57
2018-09-21T05:14:49.486Z,8.67
2018-09-21T05:17:19.161Z,8.47
2018-09-21T05:19:48.747Z,8.30
2018-09-21T05:22:18.349Z,8.27
2018-09-21T05:24:47.929Z,8.37
2018-09-21T05:27:17.555Z,8.87
2018-09-21T05:29:47.343Z,7.97
2018-09-21T05:32:16.977Z,8.57
2018-09-21T05:34:46.719Z,8.13
2018-09-21T05:37:16.315Z,8.20
2018-09-21T05:39:45.954Z,8.30
2018-09-21T05:42:15.608Z,8.50
2018-09-21T05:44:45.263Z,8.20
2018-09-21T05:47:14.906Z,7.83
2018-09-21T05:49:44.530Z,8.57
2018-09-21T05:52:14.164Z,8.80
2018-09-21T05:54:43.815Z,8.67
2018-09-21T05:57:13.443Z,8.70
2018-09-21T05:59:43.142Z,9.63
2018-09-21T06:02:12.838Z,8.23
2018-09-21T06:04:42.611Z,9.30
2018-09-21T06:07:12.232Z,8.50
2018-09-21T06:09:41.826Z,9.30
2018-09-21T06:12:11.471Z,8.87
2018-09-21T06:14:41.058Z,9.60
2018-09-21T06:17:10.622Z,10.35
2018-09-21T06:19:40.268Z,10.40
2018-09-21T06:22:09.897Z,10.63
2018-09-21T06:24:39.483Z,10.00
2018-09-21T06:27:09.141Z,9.70
2018-09-21T06:29:38.713Z,9.80
2018-09-21T06:32:08.301Z,10.20
2018-09-21T06:34:38.037Z,9.30
2018-09-21T06:37:07.682Z,8.97
2018-09-21T06:39:37.278Z,9.77
2018-09-21T06:42:07.214Z,9.30
2018-09-21T06:44:36.814Z,8.48
2018-09-21T06:47:06.664Z,8.70
2018-09-21T06:49:36.329Z,8.43
2018-09-21T06:52:06.011Z,8.90
2018-09-21T06:54:35.678Z,8.50
2018-09-21T06:57:05.346Z,8.40
2018-09-21T06:59:35.033Z,8.07
2018-09-21T07:02:04.815Z,8.13
2018-09-21T07:04:34.441Z,7.47
2018-09-21T07:07:04.125Z,8.03
2018-09-21T07:09:33.712Z,7.37
2018-09-21T07:12:03.363Z,7.73
2018-09-21T07:14:33.080Z,7.37
2018-09-21T07:17:02.775Z,7.90
2018-09-21T07:19:32.443Z,7.67
2018-09-21T07:22:02.079Z,8.00
2018-09-21T07:24:31.617Z,7.47
2018-09-21T07:27:01.268Z,7.27
2018-09-21T07:29:30.943Z,7.20
2018-09-21T07:32:00.592Z,7.40
2018-09-21T07:34:31.466Z,7.50
2018-09-21T07:37:01.146Z,7.50
2018-09-21T07:39:30.801Z,7.37
2018-09-21T07:42:00.619Z,7.53
2018-09-21T07:44:30.348Z,7.37
2018-09-21T07:47:00.330Z,7.07
2018-09-21T07:49:30.057Z,6.80
2018-09-21T07:51:59.712Z,7.20
2018-09-21T07:54:29.498Z,7.33
2018-09-21T07:57:00.281Z,6.63
2018-09-21T07:59:29.970Z,7.23
2018-09-21T08:02:00.093Z,6.63
2018-09-21T08:04:30.243Z,7.40
2018-09-21T08:06:59.958Z,7.03
2018-09-21T08:09:29.650Z,7.07
2018-09-21T08:11:59.322Z,7.30
2018-09-21T08:14:28.959Z,7.33
2018-09-21T08:16:58.628Z,7.30
2018-09-21T08:19:28.426Z,6.87
2018-09-21T08:21:59.075Z,7.03
2018-09-21T08:24:30.433Z,7.40
2018-09-21T08:27:00.120Z,7.07
2018-09-21T08:29:29.746Z,6.57
2018-09-21T08:32:00.599Z,7.30
2018-09-21T08:34:30.395Z,7.20
2018-09-21T08:37:00.137Z,7.40
2018-09-21T08:39:31.386Z,7.10
2018-09-21T08:42:01.131Z,8.27
2018-09-21T08:44:30.793Z,8.10
2018-09-21T08:47:00.405Z,8.30
2018-09-21T08:49:30.071Z,8.00
2018-09-21T08:51:59.752Z,8.20
2018-09-21T08:54:29.437Z,7.77
2018-09-21T08:56:59.361Z,7.50
2018-09-21T08:59:28.943Z,8.20
2018-09-21T09:01:58.605Z,8.00
2018-09-21T09:04:28.398Z,7.80
2018-09-21T09:06:58.037Z,8.03
2018-09-21T09:09:27.747Z,8.07
2018-09-21T09:11:57.454Z,8.20
2018-09-21T09:14:27.174Z,7.83
2018-09-21T09:17:01.683Z,7.67
2018-09-21T09:19:31.383Z,8.13
2018-09-21T09:22:01.208Z,7.70
2018-09-21T09:24:31.002Z,7.40
2018-09-21T09:27:00.671Z,7.30
2018-09-21T09:29:30.320Z,9.03
2018-09-21T09:31:59.960Z,8.80
2018-09-21T09:34:29.558Z,9.20
2018-09-21T09:36:59.364Z,8.63
2018-09-21T09:39:29.032Z,9.00
2018-09-21T09:41:58.652Z,8.13
2018-09-21T09:44:28.255Z,8.30
2018-09-21T09:46:57.940Z,9.17
2018-09-21T09:49:27.602Z,8.77
2018-09-21T09:51:57.256Z,8.43
2018-09-21T09:54:26.853Z,9.00
2018-09-21T09:56:56.459Z,8.63
2018-09-21T09:59:26.075Z,8.67
2018-09-21T10:01:55.661Z,8.50
2018-09-21T10:04:25.197Z,8.70
2018-09-21T10:06:54.774Z,8.67
2018-09-21T10:09:24.373Z,8.77
2018-09-21T10:11:53.950Z,8.67
2018-09-21T10:14:23.569Z,8.40
2018-09-21T10:16:53.215Z,7.97
2018-09-21T10:19:22.778Z,8.30
2018-09-21T10:21:52.436Z,8.50
2018-09-21T10:24:22.163Z,8.57
2018-09-21T10:26:51.769Z,8.77
2018-09-21T10:29:22.435Z,7.97
2018-09-21T10:31:51.999Z,7.83
2018-09-21T10:34:22.049Z,8.67
2018-09-21T10:36:51.654Z,7.87
2018-09-21T10:39:21.293Z,7.83
2018-09-21T10:41:50.961Z,8.23
2018-09-21T10:44:20.645Z,8.03
2018-09-21T10:46:50.362Z,8.40
2018-09-21T10:49:26.343Z,8.20
2018-09-21T10:51:55.966Z,8.50
2018-09-21T10:54:25.692Z,8.57
2018-09-21T10:56:55.317Z,9.05
2018-09-21T10:59:24.915Z,9.17
2018-09-21T11:01:54.506Z,9.93
2018-09-21T11:04:24.176Z,11.03
2018-09-21T11:06:53.774Z,10.65
2018-09-21T11:09:23.465Z,9.78
2018-09-21T11:11:53.148Z,10.68
2018-09-21T11:14:22.995Z,10.27
2018-09-21T11:16:52.675Z,10.32
2018-09-21T11:19:22.325Z,10.58
2018-09-21T11:21:51.997Z,9.80
2018-09-21T11:24:21.703Z,8.78
2018-09-21T11:26:51.334Z,9.33
2018-09-21T11:29:21.009Z,9.37
2018-09-21T11:31:50.651Z,8.93
2018-09-21T11:34:20.349Z,9.53
2018-09-21T11:36:49.967Z,9.63
2018-09-21T11:39:19.605Z,9.07
2018-09-21T11:41:49.263Z,9.95
2018-09-21T11:44:18.912Z,8.50
2018-09-21T11:46:48.621Z,8.78
2018-09-21T11:49:18.165Z,9.63
2018-09-21T11:51:47.755Z,9.20
2018-09-21T11:54:17.345Z,8.60
2018-09-21T11:56:46.979Z,8.68
2018-09-21T11:59:16.616Z,9.00
2018-09-21T12:01:46.291Z,8.05
2018-09-21T12:04:15.903Z,8.90
2018-09-21T12:06:45.503Z,9.00
2018-09-21T12:09:15.144Z,8.80
2018-09-21T12:11:44.767Z,9.08
2018-09-21T12:14:14.335Z,9.45
2018-09-21T12:16:44.003Z,8.33
2018-09-21T12:19:13.648Z,9.30
2018-09-21T12:21:43.332Z,8.90
2018-09-21T12:24:13.138Z,7.70
2018-09-21T12:26:42.824Z,8.28
2018-09-21T12:29:14.116Z,9.30
2018-09-21T12:31:43.862Z,8.93
2018-09-21T12:34:13.510Z,8.68
2018-09-21T12:36:43.289Z,9.33
2018-09-21T12:39:14.363Z,8.88
2018-09-21T12:41:44.496Z,9.00
2018-09-21T12:44:15.931Z,8.53
2018-09-21T12:46:45.570Z,7.90
2018-09-21T12:49:15.265Z,8.38
2018-09-21T12:51:44.897Z,8.28
2018-09-21T12:54:14.509Z,8.40
2018-09-21T12:56:44.163Z,9.10
2018-09-21T12:59:13.770Z,8.33
2018-09-21T13:01:43.387Z,8.75
2018-09-21T13:04:13.015Z,8.85
2018-09-21T13:06:42.605Z,8.55
2018-09-21T13:09:12.228Z,8.80
2018-09-21T13:11:41.926Z,7.13
2018-09-21T13:14:11.459Z,7.62
2018-09-21T13:16:41.238Z,7.83
2018-09-21T13:19:10.898Z,7.90
2018-09-21T13:21:40.494Z,9.05
2018-09-21T13:24:10.257Z,7.97
2018-09-21T13:26:39.970Z,8.20
2018-09-21T13:29:09.619Z,8.40
2018-09-21T13:31:39.233Z,8.10
2018-09-21T13:34:09.038Z,7.15
2018-09-21T13:36:38.660Z,7.45
2018-09-21T13:39:11.045Z,7.40
2018-09-21T13:41:40.979Z,8.53
2018-09-21T13:44:10.718Z,8.35
2018-09-21T13:46:40.363Z,8.55
2018-09-21T13:49:09.903Z,7.60
2018-09-21T13:51:39.525Z,9.03
2018-09-21T13:54:09.148Z,8.70
2018-09-21T13:56:38.761Z,8.00
2018-09-21T13:59:09.720Z,7.87
2018-09-21T14:01:39.435Z,7.57
2018-09-21T14:04:09.063Z,7.87
2018-09-21T14:06:38.638Z,7.75
2018-09-21T14:09:09.130Z,7.87
2018-09-21T14:11:38.839Z,8.30
2018-09-21T14:14:08.536Z,7.58
2018-09-21T14:16:38.137Z,7.97
2018-09-21T14:19:07.718Z,7.50
2018-09-21T14:21:37.316Z,7.85
2018-09-21T14:24:07.166Z,7.77
2018-09-21T14:26:36.883Z,7.75
2018-09-21T14:29:06.489Z,7.35
2018-09-21T14:31:36.067Z,7.80
2018-09-21T14:34:05.752Z,8.03
2018-09-21T14:36:35.366Z,8.68
2018-09-21T14:39:06.517Z,8.63
2018-09-21T14:41:36.147Z,8.58
2018-09-21T14:44:06.017Z,8.38
2018-09-21T14:46:35.645Z,8.33
2018-09-21T14:49:05.237Z,8.68
2018-09-21T14:51:34.878Z,8.05
2018-09-21T14:54:04.524Z,7.92
2018-09-21T14:56:34.160Z,7.42
2018-09-21T14:59:03.862Z,7.12
2018-09-21T15:01:33.497Z,8.13
2018-09-21T15:04:03.215Z,7.90
2018-09-21T15:06:32.848Z,7.85
2018-09-21T15:09:09.876Z,8.05
2018-09-21T15:11:39.969Z,7.55
2018-09-21T15:14:09.727Z,7.58
2018-09-21T15:16:39.684Z,7.92
2018-09-21T15:19:09.525Z,8.10
2018-09-21T15:21:39.149Z,7.67
2018-09-21T15:24:08.847Z,7.60
2018-09-21T15:26:38.557Z,8.20
2018-09-21T15:29:08.177Z,7.97
2018-09-21T15:31:37.759Z,8.20
2018-09-21T15:34:07.425Z,8.35
2018-09-21T15:36:37.056Z,8.25
2018-09-21T15:39:09.646Z,7.72
2018-09-21T15:41:39.389Z,8.30
2018-09-21T15:44:08.987Z,8.58
2018-09-21T15:46:38.665Z,7.80
2018-09-21T15:49:08.466Z,7.80
2018-09-21T15:51:38.337Z,8.65
2018-09-21T15:54:08.024Z,8.53
2018-09-21T15:56:37.637Z,8.70
2018-09-21T15:59:07.345Z,8.35
2018-09-21T16:01:36.922Z,8.28
2018-09-21T16:04:06.468Z,8.70
2018-09-21T16:06:36.110Z,8.30
2018-09-21T16:09:07.728Z,8.53
2018-09-21T16:11:38.495Z,8.93
2018-09-21T16:14:08.704Z,8.88
2018-09-21T16:16:38.927Z,9.23
2018-09-21T16:19:08.510Z,9.90
2018-09-21T16:21:38.137Z,9.90
2018-09-21T16:24:07.766Z,9.10
2018-09-21T16:26:37.430Z,9.50
2018-09-21T16:29:07.125Z,9.98
2018-09-21T16:31:36.755Z,9.60
2018-09-21T16:34:06.482Z,8.93
2018-09-21T16:36:36.084Z,9.80
2018-09-21T16:39:08.513Z,8.63
2018-09-21T16:41:38.124Z,9.10
2018-09-21T16:44:08.074Z,9.25
2018-09-21T16:46:38.211Z,9.63
2018-09-21T16:49:07.863Z,9.80
2018-09-21T16:51:37.451Z,9.58
2018-09-21T16:54:07.185Z,9.28
2018-09-21T16:56:36.813Z,10.45
2018-09-21T16:59:06.413Z,10.50
2018-09-21T17:01:36.127Z,10.32
2018-09-21T17:04:05.941Z,10.90
2018-09-21T17:06:35.574Z,11.33
2018-09-21T17:09:08.075Z,10.08
2018-09-21T17:11:37.668Z,10.30
2018-09-21T17:14:07.428Z,10.63
2018-09-21T17:16:37.105Z,11.93
2018-09-21T17:19:06.795Z,12.07
2018-09-21T17:21:36.473Z,12.73
2018-09-21T17:24:06.405Z,11.47
2018-09-21T17:26:36.379Z,12.20
2018-09-21T17:29:06.311Z,12.20
2018-09-21T17:31:36.309Z,12.70
2018-09-21T17:34:06.546Z,16.73
2018-09-21T17:36:36.765Z,18.03
2018-09-21T17:39:10.371Z,17.63
2018-09-21T17:41:40.949Z,16.27
2018-09-21T17:44:11.578Z,13.90
2018-09-21T17:46:41.873Z,14.07
2018-09-21T17:49:12.372Z,14.80
2018-09-21T17:51:42.904Z,14.63
2018-09-21T17:54:13.277Z,15.43
2018-09-21T17:56:43.473Z,15.00
2018-09-21T17:59:13.801Z,13.50
2018-09-21T18:01:44.303Z,16.87
2018-09-21T18:04:14.632Z,15.40
2018-09-21T18:06:45.129Z,17.20
2018-09-21T18:09:15.510Z,17.20
2018-09-21T18:11:45.916Z,16.50
2018-09-21T18:14:16.312Z,18.20
2018-09-21T18:16:46.798Z,18.30
2018-09-21T18:19:17.224Z,17.73
2018-09-21T18:21:48.335Z,19.00
2018-09-21T18:24:18.798Z,19.33
2018-09-21T18:26:50.181Z,20.77
2018-09-21T18:29:20.633Z,21.17
2018-09-21T18:31:51.124Z,22.77
2018-09-21T18:34:21.525Z,21.63
2018-09-21T18:36:52.061Z,21.23
2018-09-21T18:39:22.535Z,21.33
2018-09-21T18:41:52.965Z,21.03
2018-09-21T18:44:23.487Z,22.63
2018-09-21T18:46:53.962Z,21.90
2018-09-21T18:49:24.323Z,22.63
2018-09-21T18:51:54.721Z,24.40
2018-09-21T18:54:25.123Z,22.67
2018-09-21T18:56:55.384Z,24.40
2018-09-21T18:59:25.585Z,25.90
2018-09-21T19:01:56.039Z,26.03
2018-09-21T19:04:26.407Z,27.03
2018-09-21T19:06:56.918Z,27.37
2018-09-21T19:09:27.178Z,29.00
2018-09-21T19:11:57.154Z,30.00
2018-09-21T19:14:26.799Z,27.37
2018-09-21T19:16:56.651Z,29.27
2018-09-21T19:19:26.598Z,27.57
2018-09-21T19:21:56.439Z,29.10
2018-09-21T19:24:26.373Z,29.83
2018-09-21T19:26:56.110Z,28.13
2018-09-21T19:29:26.141Z,26.43
2018-09-21T19:31:56.151Z,26.83
2018-09-21T19:34:26.001Z,25.73
2018-09-21T19:36:55.608Z,25.53
2018-09-21T19:39:25.311Z,24.67
2018-09-21T19:41:55.242Z,24.30
2018-09-21T19:44:25.018Z,26.40
2018-09-21T19:46:54.834Z,28.43
2018-09-21T19:49:24.750Z,28.03
2018-09-21T19:51:54.525Z,28.33
2018-09-21T19:54:24.381Z,29.83
2018-09-21T19:56:54.018Z,29.70
2018-09-21T19:59:23.704Z,29.63
2018-09-21T20:01:53.422Z,31.03
2018-09-21T20:04:23.162Z,31.03
2018-09-21T20:06:52.788Z,29.93
2018-09-21T20:09:22.436Z,29.67
2018-09-21T20:11:52.133Z,29.13
2018-09-21T20:14:21.725Z,30.83
2018-09-21T20:16:51.376Z,31.30
2018-09-21T20:19:20.975Z,31.13
2018-09-21T20:21:50.569Z,28.90
2018-09-21T20:24:20.295Z,29.83
2018-09-21T20:26:49.893Z,27.13
2018-09-21T20:29:19.497Z,29.93
2018-09-21T20:31:54.204Z,29.27
2018-09-21T20:34:23.940Z,29.50
2018-09-21T20:36:53.631Z,30.60
2018-09-21T20:39:23.256Z,30.27
2018-09-21T20:41:52.853Z,32.43
2018-09-21T20:44:22.496Z,31.60
2018-09-21T20:46:52.145Z,36.10
2018-09-21T20:49:21.762Z,31.80
2018-09-21T20:51:51.399Z,31.30
2018-09-21T20:54:21.299Z,33.00
2018-09-21T20:56:50.841Z,31.70
2018-09-21T20:59:20.568Z,29.43
2018-09-21T21:01:50.242Z,31.13
2018-09-21T21:04:19.924Z,32.73
2018-09-21T21:06:49.638Z,32.13
2018-09-21T21:09:19.334Z,31.90
2018-09-21T21:11:48.895Z,31.73
2018-09-21T21:14:18.513Z,30.50
2018-09-21T21:16:48.099Z,31.47
2018-09-21T21:19:17.677Z,31.57
2018-09-21T21:21:47.284Z,29.53
2018-09-21T21:24:16.879Z,32.63
2018-09-21T21:26:46.530Z,29.37
2018-09-21T21:29:16.149Z,27.90
2018-09-21T21:31:45.820Z,29.90
2018-09-21T21:34:15.412Z,28.27
2018-09-21T21:36:45.034Z,28.10
2018-09-21T21:39:14.641Z,31.47
2018-09-21T21:41:44.285Z,28.20
2018-09-21T21:44:13.883Z,28.77
2018-09-21T21:46:43.502Z,28.77
2018-09-21T21:49:13.246Z,27.60
2018-09-21T21:51:42.852Z,23.80
2018-09-21T21:54:12.461Z,24.40
2018-09-21T21:56:42.265Z,26.67
2018-09-21T21:59:11.854Z,25.80
2018-09-21T22:01:46.426Z,25.13
2018-09-21T22:04:17.466Z,24.60
2018-09-21T22:06:47.088Z,25.40
2018-09-21T22:09:16.707Z,24.87
2018-09-21T22:11:51.406Z,25.33
2018-09-21T22:14:21.003Z,24.30
2018-09-21T22:16:50.616Z,22.80
2018-09-21T22:19:20.215Z,23.00
2018-09-21T22:21:49.852Z,22.57
2018-09-21T22:24:19.484Z,22.90
2018-09-21T22:26:49.143Z,22.23
2018-09-21T22:29:18.821Z,22.00
2018-09-21T22:31:48.428Z,22.17
2018-09-21T22:34:18.084Z,22.40
2018-09-21T22:36:47.727Z,20.27
2018-09-21T22:39:17.412Z,22.47
2018-09-21T22:41:47.064Z,21.57
2018-09-21T22:44:16.673Z,22.23
2018-09-21T22:46:46.332Z,24.20
2018-09-21T22:49:22.795Z,23.77
2018-09-21T22:51:52.427Z,23.57
2018-09-21T22:54:22.322Z,21.90
2018-09-21T22:56:51.867Z,22.43
2018-09-21T22:59:21.519Z,22.70
2018-09-21T23:01:51.149Z,24.07
2018-09-21T23:04:20.844Z,22.43
2018-09-21T23:06:50.402Z,23.80
2018-09-21T23:09:20.063Z,22.43
2018-09-21T23:11:49.666Z,21.30
2018-09-21T23:14:19.217Z,24.53
2018-09-21T23:16:48.842Z,23.40
2018-09-21T23:19:18.467Z,26.47
2018-09-21T23:21:48.113Z,25.50
2018-09-21T23:24:17.705Z,26.00
2018-09-21T23:26:47.310Z,25.53
2018-09-21T23:29:16.969Z,26.00
2018-09-21T23:31:46.520Z,25.70
2018-09-21T23:34:16.126Z,24.97
2018-09-21T23:36:45.690Z,27.13
2018-09-21T23:39:15.312Z,26.90
2018-09-21T23:41:44.958Z,27.17
2018-09-21T23:44:14.581Z,26.73
2018-09-21T23:46:44.130Z,26.13
2018-09-21T23:49:13.709Z,27.17
2018-09-21T23:51:43.318Z,25.87
2018-09-21T23:54:12.940Z,26.37
2018-09-21T23:56:42.533Z,25.47
2018-09-21T23:59:12.130Z,25.03
